sensor_id;sensor_type;location;lat;lon;timestamp;P1;durP1;ratioP1;P2;durP2;ratioP2
36283;SDS011;56085;48.910;9.478;2023-08-31T00:00:44;4.45;;;2.00;;
36283;SDS011;56085;48.910;9.478;2023-08-31T00:03:10;7.20;;;2.15;;
36283;SDS011;56085;48.910;9.478;2023-08-31T00:05:37;4.65;;;1.90;;
36283;SDS011;56085;48.910;9.478;2023-08-31T00:08:04;3.78;;;2.00;;
36283;SDS011;56085;48.910;9.478;2023-08-31T00:10:31;4.15;;;2.20;;
36283;SDS011;56085;48.910;9.478;2023-08-31T00:12:56;3.65;;;2.00;;
36283;SDS011;56085;48.910;9.478;2023-08-31T00:15:21;4.78;;;2.50;;
36283;SDS011;56085;48.910;9.478;2023-08-31T00:17:47;4.60;;;1.92;;
36283;SDS011;56085;48.910;9.478;2023-08-31T00:20:12;3.13;;;1.85;;
36283;SDS011;56085;48.910;9.478;2023-08-31T00:22:38;4.43;;;1.90;;
36283;SDS011;56085;48.910;9.478;2023-08-31T00:25:04;5.40;;;2.65;;
36283;SDS011;56085;48.910;9.478;2023-08-31T00:27:33;3.22;;;1.92;;
36283;SDS011;56085;48.910;9.478;2023-08-31T00:29:59;3.60;;;2.30;;
36283;SDS011;56085;48.910;9.478;2023-08-31T00:32:24;6.82;;;2.35;;
36283;SDS011;56085;48.910;9.478;2023-08-31T00:34:50;3.85;;;2.30;;
36283;SDS011;56085;48.910;9.478;2023-08-31T00:37:15;3.35;;;2.10;;
36283;SDS011;56085;48.910;9.478;2023-08-31T00:39:41;3.78;;;1.95;;
36283;SDS011;56085;48.910;9.478;2023-08-31T00:42:06;4.75;;;2.28;;
36283;SDS011;56085;48.910;9.478;2023-08-31T00:44:32;3.92;;;2.00;;
36283;SDS011;56085;48.910;9.478;2023-08-31T00:46:58;5.40;;;2.03;;
36283;SDS011;56085;48.910;9.478;2023-08-31T00:49:23;3.45;;;2.08;;
36283;SDS011;56085;48.910;9.478;2023-08-31T00:51:49;5.50;;;2.20;;
36283;SDS011;56085;48.910;9.478;2023-08-31T00:54:18;3.45;;;1.95;;
36283;SDS011;56085;48.910;9.478;2023-08-31T00:56:45;2.97;;;2.00;;
36283;SDS011;56085;48.910;9.478;2023-08-31T00:59:11;5.32;;;2.08;;
36283;SDS011;56085;48.910;9.478;2023-08-31T01:01:37;4.20;;;1.98;;
36283;SDS011;56085;48.910;9.478;2023-08-31T01:07:03;3.85;;;1.92;;
36283;SDS011;56085;48.910;9.478;2023-08-31T01:15:27;3.78;;;2.30;;
36283;SDS011;56085;48.910;9.478;2023-08-31T01:17:56;3.83;;;2.15;;
36283;SDS011;56085;48.910;9.478;2023-08-31T01:20:27;3.10;;;1.90;;
36283;SDS011;56085;48.910;9.478;2023-08-31T01:23:02;5.78;;;2.63;;
36283;SDS011;56085;48.910;9.478;2023-08-31T01:25:31;5.95;;;2.40;;
36283;SDS011;56085;48.910;9.478;2023-08-31T01:27:58;4.43;;;2.22;;
36283;SDS011;56085;48.910;9.478;2023-08-31T01:30:24;4.43;;;2.13;;
36283;SDS011;56085;48.910;9.478;2023-08-31T01:32:49;3.50;;;2.08;;
36283;SDS011;56085;48.910;9.478;2023-08-31T01:35:16;4.10;;;2.25;;
36283;SDS011;56085;48.910;9.478;2023-08-31T01:37:59;4.65;;;2.70;;
36283;SDS011;56085;48.910;9.478;2023-08-31T01:43:10;5.00;;;2.25;;
36283;SDS011;56085;48.910;9.478;2023-08-31T01:45:36;4.45;;;2.33;;
36283;SDS011;56085;48.910;9.478;2023-08-31T01:48:03;6.20;;;2.50;;
36283;SDS011;56085;48.910;9.478;2023-08-31T01:50:31;3.35;;;1.90;;
36283;SDS011;56085;48.910;9.478;2023-08-31T01:52:56;7.72;;;2.40;;
36283;SDS011;56085;48.910;9.478;2023-08-31T01:55:22;3.00;;;2.20;;
36283;SDS011;56085;48.910;9.478;2023-08-31T01:57:47;4.32;;;2.60;;
36283;SDS011;56085;48.910;9.478;2023-08-31T02:00:14;5.55;;;2.38;;
36283;SDS011;56085;48.910;9.478;2023-08-31T02:02:41;7.30;;;2.28;;
36283;SDS011;56085;48.910;9.478;2023-08-31T02:05:07;5.28;;;2.33;;
36283;SDS011;56085;48.910;9.478;2023-08-31T02:07:33;4.20;;;2.72;;
36283;SDS011;56085;48.910;9.478;2023-08-31T02:09:58;5.18;;;3.00;;
36283;SDS011;56085;48.910;9.478;2023-08-31T02:12:24;4.93;;;2.40;;
36283;SDS011;56085;48.910;9.478;2023-08-31T02:14:49;4.20;;;2.53;;
36283;SDS011;56085;48.910;9.478;2023-08-31T02:17:14;7.78;;;2.55;;
36283;SDS011;56085;48.910;9.478;2023-08-31T02:19:40;6.05;;;2.55;;
36283;SDS011;56085;48.910;9.478;2023-08-31T02:22:05;4.32;;;2.35;;
36283;SDS011;56085;48.910;9.478;2023-08-31T02:24:30;6.10;;;3.30;;
36283;SDS011;56085;48.910;9.478;2023-08-31T02:26:56;7.13;;;2.75;;
36283;SDS011;56085;48.910;9.478;2023-08-31T02:29:21;4.57;;;2.92;;
36283;SDS011;56085;48.910;9.478;2023-08-31T02:31:47;3.65;;;2.20;;
36283;SDS011;56085;48.910;9.478;2023-08-31T02:34:12;5.13;;;2.92;;
36283;SDS011;56085;48.910;9.478;2023-08-31T02:36:38;4.97;;;2.33;;
36283;SDS011;56085;48.910;9.478;2023-08-31T02:39:03;3.97;;;2.50;;
36283;SDS011;56085;48.910;9.478;2023-08-31T02:41:28;3.40;;;2.35;;
36283;SDS011;56085;48.910;9.478;2023-08-31T02:43:54;4.45;;;2.80;;
36283;SDS011;56085;48.910;9.478;2023-08-31T02:46:20;4.65;;;2.60;;
36283;SDS011;56085;48.910;9.478;2023-08-31T02:48:45;5.43;;;2.20;;
36283;SDS011;56085;48.910;9.478;2023-08-31T02:51:11;4.45;;;2.50;;
36283;SDS011;56085;48.910;9.478;2023-08-31T02:53:36;5.20;;;2.63;;
36283;SDS011;56085;48.910;9.478;2023-08-31T02:56:01;4.00;;;2.58;;
36283;SDS011;56085;48.910;9.478;2023-08-31T02:58:27;4.93;;;2.65;;
36283;SDS011;56085;48.910;9.478;2023-08-31T03:00:52;4.13;;;2.67;;
36283;SDS011;56085;48.910;9.478;2023-08-31T03:03:18;5.47;;;2.25;;
36283;SDS011;56085;48.910;9.478;2023-08-31T03:05:44;7.25;;;3.30;;
36283;SDS011;56085;48.910;9.478;2023-08-31T03:08:09;5.22;;;2.70;;
36283;SDS011;56085;48.910;9.478;2023-08-31T03:10:35;5.53;;;2.47;;
36283;SDS011;56085;48.910;9.478;2023-08-31T03:13:01;4.00;;;2.30;;
36283;SDS011;56085;48.910;9.478;2023-08-31T03:15:26;4.10;;;2.72;;
36283;SDS011;56085;48.910;9.478;2023-08-31T03:17:51;3.60;;;2.42;;
36283;SDS011;56085;48.910;9.478;2023-08-31T03:20:17;4.50;;;2.55;;
36283;SDS011;56085;48.910;9.478;2023-08-31T03:22:42;5.93;;;3.13;;
36283;SDS011;56085;48.910;9.478;2023-08-31T03:25:08;3.92;;;2.22;;
36283;SDS011;56085;48.910;9.478;2023-08-31T03:27:33;3.40;;;2.40;;
36283;SDS011;56085;48.910;9.478;2023-08-31T03:29:58;5.40;;;3.17;;
36283;SDS011;56085;48.910;9.478;2023-08-31T03:32:23;4.40;;;2.33;;
36283;SDS011;56085;48.910;9.478;2023-08-31T03:34:49;4.63;;;3.10;;
36283;SDS011;56085;48.910;9.478;2023-08-31T03:37:15;4.18;;;2.83;;
36283;SDS011;56085;48.910;9.478;2023-08-31T03:39:40;4.47;;;2.90;;
36283;SDS011;56085;48.910;9.478;2023-08-31T03:42:07;4.70;;;3.03;;
36283;SDS011;56085;48.910;9.478;2023-08-31T03:44:34;7.95;;;2.80;;
36283;SDS011;56085;48.910;9.478;2023-08-31T03:46:59;5.97;;;2.58;;
36283;SDS011;56085;48.910;9.478;2023-08-31T03:49:25;4.47;;;3.15;;
36283;SDS011;56085;48.910;9.478;2023-08-31T03:51:50;8.77;;;3.00;;
36283;SDS011;56085;48.910;9.478;2023-08-31T03:54:17;8.73;;;3.30;;
36283;SDS011;56085;48.910;9.478;2023-08-31T03:56:43;4.43;;;2.58;;
36283;SDS011;56085;48.910;9.478;2023-08-31T03:59:08;4.53;;;2.60;;
36283;SDS011;56085;48.910;9.478;2023-08-31T04:01:33;3.35;;;2.17;;
36283;SDS011;56085;48.910;9.478;2023-08-31T04:03:58;3.05;;;2.03;;
36283;SDS011;56085;48.910;9.478;2023-08-31T04:06:24;5.07;;;2.50;;
36283;SDS011;56085;48.910;9.478;2023-08-31T04:08:49;4.68;;;2.55;;
36283;SDS011;56085;48.910;9.478;2023-08-31T04:11:15;5.30;;;2.53;;
36283;SDS011;56085;48.910;9.478;2023-08-31T04:13:40;3.63;;;2.33;;
36283;SDS011;56085;48.910;9.478;2023-08-31T04:16:05;3.92;;;2.50;;
36283;SDS011;56085;48.910;9.478;2023-08-31T04:18:31;3.15;;;2.20;;
36283;SDS011;56085;48.910;9.478;2023-08-31T04:20:56;4.03;;;2.05;;
36283;SDS011;56085;48.910;9.478;2023-08-31T04:23:24;3.90;;;2.05;;
36283;SDS011;56085;48.910;9.478;2023-08-31T04:25:49;5.35;;;2.20;;
36283;SDS011;56085;48.910;9.478;2023-08-31T04:28:16;4.30;;;2.10;;
36283;SDS011;56085;48.910;9.478;2023-08-31T04:30:41;4.13;;;1.88;;
36283;SDS011;56085;48.910;9.478;2023-08-31T04:33:07;5.13;;;2.13;;
36283;SDS011;56085;48.910;9.478;2023-08-31T04:35:33;4.25;;;2.20;;
36283;SDS011;56085;48.910;9.478;2023-08-31T04:37:58;7.90;;;2.65;;
36283;SDS011;56085;48.910;9.478;2023-08-31T04:40:23;3.85;;;1.75;;
36283;SDS011;56085;48.910;9.478;2023-08-31T04:42:49;7.32;;;2.40;;
36283;SDS011;56085;48.910;9.478;2023-08-31T04:45:15;3.42;;;1.95;;
36283;SDS011;56085;48.910;9.478;2023-08-31T04:47:40;4.25;;;2.00;;
36283;SDS011;56085;48.910;9.478;2023-08-31T04:50:07;4.50;;;2.22;;
36283;SDS011;56085;48.910;9.478;2023-08-31T04:52:33;5.63;;;2.28;;
36283;SDS011;56085;48.910;9.478;2023-08-31T04:55:00;3.50;;;1.67;;
36283;SDS011;56085;48.910;9.478;2023-08-31T04:57:25;5.93;;;1.92;;
36283;SDS011;56085;48.910;9.478;2023-08-31T04:59:51;4.30;;;2.00;;
36283;SDS011;56085;48.910;9.478;2023-08-31T05:02:16;3.28;;;1.95;;
36283;SDS011;56085;48.910;9.478;2023-08-31T05:04:41;3.72;;;2.20;;
36283;SDS011;56085;48.910;9.478;2023-08-31T05:07:06;5.53;;;2.10;;
36283;SDS011;56085;48.910;9.478;2023-08-31T05:09:32;4.90;;;2.28;;
36283;SDS011;56085;48.910;9.478;2023-08-31T05:12:00;6.07;;;2.15;;
36283;SDS011;56085;48.910;9.478;2023-08-31T05:14:28;4.40;;;2.00;;
36283;SDS011;56085;48.910;9.478;2023-08-31T05:16:54;5.68;;;2.33;;
36283;SDS011;56085;48.910;9.478;2023-08-31T05:19:19;7.78;;;2.47;;
36283;SDS011;56085;48.910;9.478;2023-08-31T05:21:44;10.82;;;2.35;;
36283;SDS011;56085;48.910;9.478;2023-08-31T05:24:10;6.22;;;2.40;;
36283;SDS011;56085;48.910;9.478;2023-08-31T05:26:35;4.68;;;2.20;;
36283;SDS011;56085;48.910;9.478;2023-08-31T05:29:01;4.90;;;2.20;;
36283;SDS011;56085;48.910;9.478;2023-08-31T05:31:29;4.93;;;2.28;;
36283;SDS011;56085;48.910;9.478;2023-08-31T05:33:55;4.63;;;2.40;;
36283;SDS011;56085;48.910;9.478;2023-08-31T05:36:20;5.82;;;2.20;;
36283;SDS011;56085;48.910;9.478;2023-08-31T05:38:45;5.57;;;2.50;;
36283;SDS011;56085;48.910;9.478;2023-08-31T05:41:11;4.95;;;2.25;;
36283;SDS011;56085;48.910;9.478;2023-08-31T05:43:36;4.13;;;2.20;;
36283;SDS011;56085;48.910;9.478;2023-08-31T05:46:04;5.07;;;1.77;;
36283;SDS011;56085;48.910;9.478;2023-08-31T05:48:30;7.75;;;2.65;;
36283;SDS011;56085;48.910;9.478;2023-08-31T05:50:56;5.25;;;1.77;;
36283;SDS011;56085;48.910;9.478;2023-08-31T05:53:21;3.53;;;1.85;;
36283;SDS011;56085;48.910;9.478;2023-08-31T05:55:47;5.15;;;2.20;;
36283;SDS011;56085;48.910;9.478;2023-08-31T05:58:12;3.70;;;1.85;;
36283;SDS011;56085;48.910;9.478;2023-08-31T06:00:37;3.67;;;1.73;;
36283;SDS011;56085;48.910;9.478;2023-08-31T06:03:03;5.40;;;1.92;;
36283;SDS011;56085;48.910;9.478;2023-08-31T06:05:30;5.32;;;2.10;;
36283;SDS011;56085;48.910;9.478;2023-08-31T06:07:56;3.00;;;1.60;;
36283;SDS011;56085;48.910;9.478;2023-08-31T06:10:22;4.50;;;2.05;;
36283;SDS011;56085;48.910;9.478;2023-08-31T06:12:48;2.60;;;1.90;;
36283;SDS011;56085;48.910;9.478;2023-08-31T06:15:13;5.53;;;2.20;;
36283;SDS011;56085;48.910;9.478;2023-08-31T06:17:40;6.03;;;1.80;;
36283;SDS011;56085;48.910;9.478;2023-08-31T06:20:06;4.50;;;2.00;;
36283;SDS011;56085;48.910;9.478;2023-08-31T06:22:33;3.58;;;1.80;;
36283;SDS011;56085;48.910;9.478;2023-08-31T06:24:58;5.00;;;1.90;;
36283;SDS011;56085;48.910;9.478;2023-08-31T06:27:24;8.82;;;2.28;;
36283;SDS011;56085;48.910;9.478;2023-08-31T06:29:50;6.10;;;2.28;;
36283;SDS011;56085;48.910;9.478;2023-08-31T06:32:18;3.35;;;1.80;;
36283;SDS011;56085;48.910;9.478;2023-08-31T06:34:44;6.13;;;2.20;;
36283;SDS011;56085;48.910;9.478;2023-08-31T06:37:10;5.22;;;1.95;;
36283;SDS011;56085;48.910;9.478;2023-08-31T06:39:35;4.30;;;2.25;;
36283;SDS011;56085;48.910;9.478;2023-08-31T06:42:01;5.50;;;1.67;;
36283;SDS011;56085;48.910;9.478;2023-08-31T06:44:26;6.80;;;2.00;;
36283;SDS011;56085;48.910;9.478;2023-08-31T06:46:52;9.25;;;1.95;;
36283;SDS011;56085;48.910;9.478;2023-08-31T06:49:17;7.50;;;2.45;;
36283;SDS011;56085;48.910;9.478;2023-08-31T06:51:43;6.70;;;1.83;;
36283;SDS011;56085;48.910;9.478;2023-08-31T06:54:08;5.03;;;1.90;;
36283;SDS011;56085;48.910;9.478;2023-08-31T06:56:34;8.40;;;2.03;;
36283;SDS011;56085;48.910;9.478;2023-08-31T06:58:59;4.93;;;1.80;;
36283;SDS011;56085;48.910;9.478;2023-08-31T07:01:25;5.07;;;1.95;;
36283;SDS011;56085;48.910;9.478;2023-08-31T07:03:51;5.38;;;2.20;;
36283;SDS011;56085;48.910;9.478;2023-08-31T07:06:17;2.38;;;1.23;;
36283;SDS011;56085;48.910;9.478;2023-08-31T07:08:42;7.35;;;2.03;;
36283;SDS011;56085;48.910;9.478;2023-08-31T07:11:10;5.78;;;1.83;;
36283;SDS011;56085;48.910;9.478;2023-08-31T07:13:35;5.20;;;2.15;;
36283;SDS011;56085;48.910;9.478;2023-08-31T07:16:00;6.20;;;1.80;;
36283;SDS011;56085;48.910;9.478;2023-08-31T07:18:26;4.40;;;1.88;;
36283;SDS011;56085;48.910;9.478;2023-08-31T07:20:51;3.60;;;1.88;;
36283;SDS011;56085;48.910;9.478;2023-08-31T07:23:16;4.40;;;1.42;;
36283;SDS011;56085;48.910;9.478;2023-08-31T07:25:42;11.05;;;2.28;;
36283;SDS011;56085;48.910;9.478;2023-08-31T07:28:07;7.47;;;1.80;;
36283;SDS011;56085;48.910;9.478;2023-08-31T07:30:32;4.28;;;1.63;;
36283;SDS011;56085;48.910;9.478;2023-08-31T07:32:58;5.05;;;1.60;;
36283;SDS011;56085;48.910;9.478;2023-08-31T07:35:27;4.35;;;1.67;;
36283;SDS011;56085;48.910;9.478;2023-08-31T07:37:53;3.30;;;1.90;;
36283;SDS011;56085;48.910;9.478;2023-08-31T07:40:18;5.00;;;1.88;;
36283;SDS011;56085;48.910;9.478;2023-08-31T07:42:43;3.10;;;1.48;;
36283;SDS011;56085;48.910;9.478;2023-08-31T07:45:09;3.92;;;1.80;;
36283;SDS011;56085;48.910;9.478;2023-08-31T07:47:34;4.53;;;1.60;;
36283;SDS011;56085;48.910;9.478;2023-08-31T07:49:59;3.38;;;1.75;;
36283;SDS011;56085;48.910;9.478;2023-08-31T07:52:25;5.75;;;1.73;;
36283;SDS011;56085;48.910;9.478;2023-08-31T07:54:50;5.57;;;2.17;;
36283;SDS011;56085;48.910;9.478;2023-08-31T07:57:15;5.50;;;1.60;;
36283;SDS011;56085;48.910;9.478;2023-08-31T07:59:41;4.97;;;2.15;;
36283;SDS011;56085;48.910;9.478;2023-08-31T08:02:06;4.60;;;1.92;;
36283;SDS011;56085;48.910;9.478;2023-08-31T08:04:32;4.45;;;1.80;;
36283;SDS011;56085;48.910;9.478;2023-08-31T08:06:57;5.93;;;1.70;;
36283;SDS011;56085;48.910;9.478;2023-08-31T08:09:22;4.28;;;1.60;;
36283;SDS011;56085;48.910;9.478;2023-08-31T08:11:48;5.32;;;1.73;;
36283;SDS011;56085;48.910;9.478;2023-08-31T08:14:13;5.70;;;2.10;;
36283;SDS011;56085;48.910;9.478;2023-08-31T08:16:40;7.03;;;1.83;;
36283;SDS011;56085;48.910;9.478;2023-08-31T08:19:05;4.95;;;1.83;;
36283;SDS011;56085;48.910;9.478;2023-08-31T08:21:31;5.47;;;2.17;;
36283;SDS011;56085;48.910;9.478;2023-08-31T08:23:56;7.97;;;2.25;;
36283;SDS011;56085;48.910;9.478;2023-08-31T08:26:21;9.10;;;2.10;;
36283;SDS011;56085;48.910;9.478;2023-08-31T08:28:47;4.32;;;2.15;;
36283;SDS011;56085;48.910;9.478;2023-08-31T08:31:12;3.47;;;1.38;;
36283;SDS011;56085;48.910;9.478;2023-08-31T08:33:37;5.18;;;2.15;;
36283;SDS011;56085;48.910;9.478;2023-08-31T08:36:03;7.47;;;1.60;;
36283;SDS011;56085;48.910;9.478;2023-08-31T08:38:28;4.35;;;1.70;;
36283;SDS011;56085;48.910;9.478;2023-08-31T08:40:53;3.08;;;1.55;;
36283;SDS011;56085;48.910;9.478;2023-08-31T08:43:21;3.40;;;1.65;;
36283;SDS011;56085;48.910;9.478;2023-08-31T08:45:51;4.57;;;1.50;;
36283;SDS011;56085;48.910;9.478;2023-08-31T08:48:16;3.63;;;1.60;;
36283;SDS011;56085;48.910;9.478;2023-08-31T08:50:42;4.82;;;1.50;;
36283;SDS011;56085;48.910;9.478;2023-08-31T08:53:08;2.85;;;1.38;;
36283;SDS011;56085;48.910;9.478;2023-08-31T08:55:34;3.70;;;2.08;;
36283;SDS011;56085;48.910;9.478;2023-08-31T08:57:59;5.07;;;2.17;;
36283;SDS011;56085;48.910;9.478;2023-08-31T09:00:25;3.25;;;1.73;;
36283;SDS011;56085;48.910;9.478;2023-08-31T09:02:52;4.10;;;1.67;;
36283;SDS011;56085;48.910;9.478;2023-08-31T09:05:17;5.35;;;1.55;;
36283;SDS011;56085;48.910;9.478;2023-08-31T09:10:40;2.17;;;1.40;;
36283;SDS011;56085;48.910;9.478;2023-08-31T09:13:06;3.33;;;1.40;;
36283;SDS011;56085;48.910;9.478;2023-08-31T09:15:39;3.72;;;1.75;;
36283;SDS011;56085;48.910;9.478;2023-08-31T09:18:06;3.88;;;1.65;;
36283;SDS011;56085;48.910;9.478;2023-08-31T09:20:35;3.75;;;1.80;;
36283;SDS011;56085;48.910;9.478;2023-08-31T09:23:08;3.83;;;1.63;;
36283;SDS011;56085;48.910;9.478;2023-08-31T09:25:37;4.95;;;1.83;;
36283;SDS011;56085;48.910;9.478;2023-08-31T09:28:14;2.78;;;1.27;;
36283;SDS011;56085;48.910;9.478;2023-08-31T09:30:40;9.20;;;1.98;;
36283;SDS011;56085;48.910;9.478;2023-08-31T09:33:09;3.17;;;1.30;;
36283;SDS011;56085;48.910;9.478;2023-08-31T09:35:38;2.20;;;1.17;;
36283;SDS011;56085;48.910;9.478;2023-08-31T09:38:07;4.53;;;1.52;;
36283;SDS011;56085;48.910;9.478;2023-08-31T09:40:33;6.03;;;2.00;;
36283;SDS011;56085;48.910;9.478;2023-08-31T09:42:58;4.05;;;1.73;;
36283;SDS011;56085;48.910;9.478;2023-08-31T09:45:32;4.53;;;1.60;;
36283;SDS011;56085;48.910;9.478;2023-08-31T09:47:59;3.30;;;1.45;;
36283;SDS011;56085;48.910;9.478;2023-08-31T09:50:26;6.38;;;1.67;;
36283;SDS011;56085;48.910;9.478;2023-08-31T09:52:54;4.32;;;1.45;;
36283;SDS011;56085;48.910;9.478;2023-08-31T09:55:22;6.13;;;2.10;;
36283;SDS011;56085;48.910;9.478;2023-08-31T09:57:53;3.50;;;1.70;;
36283;SDS011;56085;48.910;9.478;2023-08-31T10:00:21;4.72;;;1.90;;
36283;SDS011;56085;48.910;9.478;2023-08-31T10:02:47;3.53;;;1.58;;
36283;SDS011;56085;48.910;9.478;2023-08-31T10:05:14;4.68;;;1.83;;
36283;SDS011;56085;48.910;9.478;2023-08-31T10:07:40;3.78;;;1.58;;
36283;SDS011;56085;48.910;9.478;2023-08-31T10:10:07;4.57;;;1.58;;
36283;SDS011;56085;48.910;9.478;2023-08-31T10:12:33;4.20;;;1.98;;
36283;SDS011;56085;48.910;9.478;2023-08-31T10:15:01;3.05;;;2.25;;
36283;SDS011;56085;48.910;9.478;2023-08-31T10:17:26;7.25;;;1.70;;
36283;SDS011;56085;48.910;9.478;2023-08-31T10:19:52;5.72;;;1.83;;
36283;SDS011;56085;48.910;9.478;2023-08-31T10:22:19;2.65;;;1.42;;
36283;SDS011;56085;48.910;9.478;2023-08-31T10:27:23;2.35;;;1.30;;
36283;SDS011;56085;48.910;9.478;2023-08-31T10:29:49;4.97;;;1.77;;
36283;SDS011;56085;48.910;9.478;2023-08-31T10:32:17;6.38;;;1.92;;
36283;SDS011;56085;48.910;9.478;2023-08-31T10:34:43;2.97;;;1.48;;
36283;SDS011;56085;48.910;9.478;2023-08-31T10:37:21;3.63;;;1.60;;
36283;SDS011;56085;48.910;9.478;2023-08-31T10:39:47;3.40;;;1.63;;
36283;SDS011;56085;48.910;9.478;2023-08-31T10:42:12;4.13;;;1.40;;
36283;SDS011;56085;48.910;9.478;2023-08-31T10:44:37;6.05;;;1.70;;
36283;SDS011;56085;48.910;9.478;2023-08-31T10:47:07;4.32;;;1.38;;
36283;SDS011;56085;48.910;9.478;2023-08-31T10:49:33;2.25;;;1.35;;
36283;SDS011;56085;48.910;9.478;2023-08-31T10:52:17;5.68;;;1.40;;
36283;SDS011;56085;48.910;9.478;2023-08-31T10:54:45;2.13;;;1.20;;
36283;SDS011;56085;48.910;9.478;2023-08-31T10:57:11;3.47;;;1.65;;
36283;SDS011;56085;48.910;9.478;2023-08-31T11:02:08;4.13;;;1.40;;
36283;SDS011;56085;48.910;9.478;2023-08-31T11:04:52;2.72;;;1.30;;
36283;SDS011;56085;48.910;9.478;2023-08-31T11:07:20;3.05;;;1.33;;
36283;SDS011;56085;48.910;9.478;2023-08-31T11:09:49;5.47;;;1.75;;
36283;SDS011;56085;48.910;9.478;2023-08-31T11:12:15;4.70;;;1.42;;
36283;SDS011;56085;48.910;9.478;2023-08-31T11:14:40;5.10;;;1.50;;
36283;SDS011;56085;48.910;9.478;2023-08-31T11:17:06;4.13;;;1.40;;
36283;SDS011;56085;48.910;9.478;2023-08-31T11:19:32;3.45;;;1.45;;
36283;SDS011;56085;48.910;9.478;2023-08-31T11:21:58;3.67;;;1.50;;
36283;SDS011;56085;48.910;9.478;2023-08-31T11:24:27;3.65;;;1.50;;
36283;SDS011;56085;48.910;9.478;2023-08-31T11:26:55;6.55;;;1.92;;
36283;SDS011;56085;48.910;9.478;2023-08-31T11:29:20;3.78;;;1.83;;
36283;SDS011;56085;48.910;9.478;2023-08-31T11:31:46;2.90;;;1.02;;
36283;SDS011;56085;48.910;9.478;2023-08-31T11:34:12;4.55;;;1.50;;
36283;SDS011;56085;48.910;9.478;2023-08-31T11:36:38;2.72;;;1.27;;
36283;SDS011;56085;48.910;9.478;2023-08-31T11:39:04;2.90;;;1.20;;
36283;SDS011;56085;48.910;9.478;2023-08-31T11:41:30;4.53;;;1.48;;
36283;SDS011;56085;48.910;9.478;2023-08-31T11:43:58;5.20;;;1.73;;
36283;SDS011;56085;48.910;9.478;2023-08-31T11:46:23;6.53;;;1.98;;
36283;SDS011;56085;48.910;9.478;2023-08-31T11:48:49;4.30;;;1.70;;
36283;SDS011;56085;48.910;9.478;2023-08-31T11:51:15;7.95;;;2.00;;
36283;SDS011;56085;48.910;9.478;2023-08-31T11:53:41;5.97;;;1.70;;
36283;SDS011;56085;48.910;9.478;2023-08-31T11:56:06;4.85;;;1.80;;
36283;SDS011;56085;48.910;9.478;2023-08-31T11:58:32;4.93;;;1.48;;
36283;SDS011;56085;48.910;9.478;2023-08-31T12:00:57;3.20;;;1.67;;
36283;SDS011;56085;48.910;9.478;2023-08-31T12:03:24;7.10;;;2.08;;
36283;SDS011;56085;48.910;9.478;2023-08-31T12:05:50;5.25;;;1.77;;
36283;SDS011;56085;48.910;9.478;2023-08-31T12:08:23;4.72;;;1.95;;
36283;SDS011;56085;48.910;9.478;2023-08-31T12:10:49;5.63;;;2.00;;
36283;SDS011;56085;48.910;9.478;2023-08-31T12:13:14;2.67;;;1.65;;
36283;SDS011;56085;48.910;9.478;2023-08-31T12:15:39;7.32;;;2.45;;
36283;SDS011;56085;48.910;9.478;2023-08-31T12:20:34;3.28;;;1.63;;
36283;SDS011;56085;48.910;9.478;2023-08-31T12:23:06;4.18;;;1.98;;
36283;SDS011;56085;48.910;9.478;2023-08-31T12:25:32;3.10;;;1.70;;
36283;SDS011;56085;48.910;9.478;2023-08-31T12:27:57;5.07;;;1.73;;
36283;SDS011;56085;48.910;9.478;2023-08-31T12:30:22;3.30;;;1.65;;
36283;SDS011;56085;48.910;9.478;2023-08-31T12:32:48;3.58;;;1.58;;
36283;SDS011;56085;48.910;9.478;2023-08-31T12:35:13;2.63;;;1.52;;
36283;SDS011;56085;48.910;9.478;2023-08-31T12:37:39;4.50;;;2.13;;
36283;SDS011;56085;48.910;9.478;2023-08-31T12:40:04;7.47;;;2.28;;
36283;SDS011;56085;48.910;9.478;2023-08-31T12:42:31;4.72;;;1.40;;
36283;SDS011;56085;48.910;9.478;2023-08-31T12:44:57;4.75;;;1.60;;
36283;SDS011;56085;48.910;9.478;2023-08-31T12:47:22;3.67;;;1.95;;
36283;SDS011;56085;48.910;9.478;2023-08-31T12:49:47;5.28;;;1.67;;
36283;SDS011;56085;48.910;9.478;2023-08-31T12:52:13;5.72;;;1.90;;
36283;SDS011;56085;48.910;9.478;2023-08-31T12:54:39;4.80;;;1.50;;
36283;SDS011;56085;48.910;9.478;2023-08-31T12:57:04;4.03;;;1.73;;
36283;SDS011;56085;48.910;9.478;2023-08-31T12:59:30;5.18;;;1.77;;
36283;SDS011;56085;48.910;9.478;2023-08-31T13:01:55;3.53;;;1.90;;
36283;SDS011;56085;48.910;9.478;2023-08-31T13:04:20;4.70;;;1.90;;
36283;SDS011;56085;48.910;9.478;2023-08-31T13:06:46;5.70;;;1.65;;
36283;SDS011;56085;48.910;9.478;2023-08-31T13:09:11;4.47;;;1.70;;
36283;SDS011;56085;48.910;9.478;2023-08-31T13:11:37;4.28;;;1.80;;
36283;SDS011;56085;48.910;9.478;2023-08-31T13:14:02;5.18;;;1.85;;
36283;SDS011;56085;48.910;9.478;2023-08-31T13:16:27;4.97;;;1.65;;
36283;SDS011;56085;48.910;9.478;2023-08-31T13:18:53;4.80;;;1.95;;
36283;SDS011;56085;48.910;9.478;2023-08-31T13:21:18;7.60;;;1.83;;
36283;SDS011;56085;48.910;9.478;2023-08-31T13:23:43;4.68;;;1.98;;
36283;SDS011;56085;48.910;9.478;2023-08-31T13:26:09;4.82;;;1.90;;
36283;SDS011;56085;48.910;9.478;2023-08-31T13:28:35;4.05;;;1.80;;
36283;SDS011;56085;48.910;9.478;2023-08-31T13:31:00;2.45;;;1.70;;
36283;SDS011;56085;48.910;9.478;2023-08-31T13:33:26;5.20;;;1.67;;
36283;SDS011;56085;48.910;9.478;2023-08-31T13:35:58;5.32;;;1.77;;
36283;SDS011;56085;48.910;9.478;2023-08-31T13:38:23;4.38;;;1.88;;
36283;SDS011;56085;48.910;9.478;2023-08-31T13:40:53;4.38;;;1.50;;
36283;SDS011;56085;48.910;9.478;2023-08-31T13:43:20;4.38;;;1.48;;
36283;SDS011;56085;48.910;9.478;2023-08-31T13:45:45;3.67;;;1.45;;
36283;SDS011;56085;48.910;9.478;2023-08-31T13:48:11;5.55;;;1.20;;
36283;SDS011;56085;48.910;9.478;2023-08-31T13:50:36;8.25;;;2.10;;
36283;SDS011;56085;48.910;9.478;2023-08-31T13:53:02;4.80;;;2.15;;
36283;SDS011;56085;48.910;9.478;2023-08-31T13:55:27;3.78;;;1.52;;
36283;SDS011;56085;48.910;9.478;2023-08-31T13:57:52;5.15;;;1.98;;
36283;SDS011;56085;48.910;9.478;2023-08-31T14:00:18;4.35;;;1.20;;
36283;SDS011;56085;48.910;9.478;2023-08-31T14:02:43;2.63;;;1.52;;
36283;SDS011;56085;48.910;9.478;2023-08-31T14:05:09;4.07;;;1.60;;
36283;SDS011;56085;48.910;9.478;2023-08-31T14:07:37;5.78;;;1.80;;
36283;SDS011;56085;48.910;9.478;2023-08-31T14:10:03;5.05;;;1.48;;
36283;SDS011;56085;48.910;9.478;2023-08-31T14:12:32;3.28;;;1.60;;
36283;SDS011;56085;48.910;9.478;2023-08-31T14:14:58;3.33;;;1.40;;
36283;SDS011;56085;48.910;9.478;2023-08-31T14:17:23;3.53;;;1.58;;
36283;SDS011;56085;48.910;9.478;2023-08-31T14:19:49;4.07;;;1.70;;
36283;SDS011;56085;48.910;9.478;2023-08-31T14:22:14;4.13;;;1.65;;
36283;SDS011;56085;48.910;9.478;2023-08-31T14:24:40;3.15;;;1.52;;
36283;SDS011;56085;48.910;9.478;2023-08-31T14:27:05;5.82;;;1.70;;
36283;SDS011;56085;48.910;9.478;2023-08-31T14:29:31;4.97;;;1.95;;
36283;SDS011;56085;48.910;9.478;2023-08-31T14:31:57;4.22;;;1.50;;
36283;SDS011;56085;48.910;9.478;2023-08-31T14:34:22;5.45;;;1.60;;
36283;SDS011;56085;48.910;9.478;2023-08-31T14:36:50;4.30;;;1.42;;
36283;SDS011;56085;48.910;9.478;2023-08-31T14:39:15;4.25;;;1.88;;
36283;SDS011;56085;48.910;9.478;2023-08-31T14:41:40;4.10;;;1.55;;
36283;SDS011;56085;48.910;9.478;2023-08-31T14:44:06;4.95;;;1.85;;
36283;SDS011;56085;48.910;9.478;2023-08-31T14:46:31;4.68;;;1.40;;
36283;SDS011;56085;48.910;9.478;2023-08-31T14:48:57;5.78;;;1.65;;
36283;SDS011;56085;48.910;9.478;2023-08-31T14:51:22;5.78;;;1.80;;
36283;SDS011;56085;48.910;9.478;2023-08-31T14:53:47;6.57;;;1.88;;
36283;SDS011;56085;48.910;9.478;2023-08-31T14:56:13;4.10;;;1.63;;
36283;SDS011;56085;48.910;9.478;2023-08-31T14:58:38;5.35;;;1.70;;
36283;SDS011;56085;48.910;9.478;2023-08-31T15:01:03;3.17;;;1.40;;
36283;SDS011;56085;48.910;9.478;2023-08-31T15:03:28;3.30;;;1.60;;